Time;durP1;ratioP1;P1;durP2;ratioP2;P2;SDS_P1;SDS_P2;PMS_P1;PMS_P2;Temp;Humidity;BMP_temperature;BMP_pressure;BME280_temperature;BME280_humidity;BME280_pressure;Samples;Min_cycle;Max_cycle;Signal;HPM_P1;HPM_P2
2021/12/13 00:00:09;;;;;;;;;;;7.10;92.90;;;;;;4989584;28;19922;-61
2021/12/13 00:02:40;;;;;;;;;;;7.10;92.90;;;;;;5021997;28;20312;-61
2021/12/13 00:05:12;;;;;;;;;;;7.10;93.10;;;;;;5005785;28;19924;-61
2021/12/13 00:07:39;;;;;;;;;;;7.10;92.90;;;;;;5006364;28;19917;-61
2021/12/13 00:10:12;;;;;;;;;;;7.10;92.90;;;;;;4989858;28;19917;-61
2021/12/13 00:12:39;;;;;;;;;;;7.10;92.90;;;;;;5006940;28;19943;-60
2021/12/13 00:15:07;;;;;;;;;;;7.10;92.90;;;;;;5021611;28;20039;-61
2021/12/13 00:17:36;;;;;;;;;;;7.10;93.20;;;;;;5004310;28;20297;-61
2021/12/13 00:20:12;;;;;;;;;;;7.10;92.90;;;;;;5005973;28;20495;-61
2021/12/13 00:22:40;;;;;;;;;;;7.10;92.90;;;;;;4990768;28;19948;-60
2021/12/13 00:25:06;;;;;;;;;;;7.10;92.90;;;;;;5021917;28;19917;-60
2021/12/13 00:27:32;;;;;;;;;;;7.10;92.90;;;;;;5003563;28;19971;-60
2021/12/13 00:30:04;;;;;;;;;;;7.10;93.00;;;;;;5012262;28;20292;-61
2021/12/13 00:32:48;;;;;;;;;;;7.10;92.90;;;;;;5024079;28;19924;-61
2021/12/13 00:35:14;;;;;;;;;;;7.10;92.90;;;;;;5019741;28;20024;-61
2021/12/13 00:37:41;;;;;;;;;;;7.10;92.90;;;;;;5005530;28;19954;-61
2021/12/13 00:40:13;;;;;;;;;;;7.10;92.90;;;;;;4987078;28;19913;-60
2021/12/13 00:42:53;;;;;;;;;;;7.10;92.90;;;;;;5024175;28;19944;-61
2021/12/13 00:45:20;;;;;;;;;;;7.10;93.00;;;;;;5021594;28;19913;-60
2021/12/13 00:47:45;;;;;;;;;;;7.10;93.10;;;;;;4988787;28;20316;-61
2021/12/13 00:50:18;;;;;;;;;;;7.10;93.10;;;;;;5005753;28;20149;-61
2021/12/13 00:52:43;;;;;;;;;;;7.10;93.10;;;;;;5005127;28;19913;-60
2021/12/13 00:55:20;;;;;;;;;;;7.10;93.20;;;;;;5004955;28;19921;-62
2021/12/13 00:57:50;;;;;;;;;;;6.80;93.00;;;;;;5004230;28;19923;-61
2021/12/13 01:00:26;;;;;;;;;;;7.00;93.10;;;;;;5009110;28;19933;-61
2021/12/13 01:02:54;;;;;;;;;;;7.10;93.10;;;;;;5003669;28;20024;-61
2021/12/13 01:05:40;;;;;;;;;;;7.10;93.00;;;;;;5004584;28;19921;-61
2021/12/13 01:08:24;;;;;;;;;;;7.10;93.00;;;;;;5002307;28;19920;-61
2021/12/13 01:10:50;;;;;;;;;;;7.10;93.00;;;;;;5020295;28;19928;-61
2021/12/13 01:13:25;;;;;;;;;;;7.10;93.00;;;;;;5021785;28;19912;-61
2021/12/13 01:15:56;;;;;;;;;;;7.10;93.00;;;;;;4988036;28;19924;-61
2021/12/13 01:18:55;;;;;;;;;;;7.10;93.00;;;;;;5021149;28;19971;-61
2021/12/13 01:21:33;;;;;;;;;;;7.00;92.90;;;;;;5021243;28;20452;-61
2021/12/13 01:24:06;;;;;;;;;;;7.10;93.00;;;;;;5006717;28;19967;-60
2021/12/13 01:26:39;;;;;;;;;;;7.10;93.00;;;;;;4989810;28;19913;-61
2021/12/13 01:29:07;;;;;;;;;;;7.10;93.00;;;;;;5005204;28;19917;-61
2021/12/13 01:31:33;;;;;;;;;;;7.10;93.00;;;;;;5021246;28;20008;-61
2021/12/13 01:34:00;;;;;;;;;;;7.00;92.90;;;;;;5005715;28;19921;-61
2021/12/13 01:36:28;;;;;;;;;;;7.10;93.00;;;;;;5004275;28;19921;-61
2021/12/13 01:38:55;;;;;;;;;;;7.10;93.00;;;;;;5011533;28;19916;-61
2021/12/13 01:41:31;;;;;;;;;;;7.00;93.10;;;;;;4987466;28;19921;-61
2021/12/13 01:43:59;;;;;;;;;;;7.00;92.90;;;;;;5017637;28;20268;-60
2021/12/13 01:46:25;;;;;;;;;;;7.10;93.00;;;;;;5020064;28;19925;-60
2021/12/13 01:48:50;;;;;;;;;;;7.00;93.00;;;;;;5005656;28;20011;-61
2021/12/13 01:51:20;;;;;;;;;;;7.00;92.90;;;;;;5002433;28;19928;-61
2021/12/13 01:53:50;;;;;;;;;;;7.00;92.90;;;;;;5005128;28;19996;-61
2021/12/13 01:59:29;;;;;;;;;;;7.10;92.90;;;;;;5020104;28;19923;-61
2021/12/13 02:01:55;;;;;;;;;;;7.00;92.90;;;;;;4990151;28;20355;-60
2021/12/13 02:04:22;;;;;;;;;;;7.00;92.90;;;;;;5021521;28;19917;-61
2021/12/13 02:06:54;;;;;;;;;;;7.00;93.00;;;;;;5019961;28;19921;-61
2021/12/13 02:09:24;;;;;;;;;;;7.10;92.90;;;;;;4988529;28;19943;-61
2021/12/13 02:11:51;;;;;;;;;;;7.00;92.90;;;;;;4982723;28;19921;-60
2021/12/13 02:14:18;;;;;;;;;;;7.00;93.00;;;;;;5015371;28;19927;-61
2021/12/13 02:19:40;;;;;;;;;;;7.00;92.90;;;;;;5005693;28;19913;-61
2021/12/13 02:22:24;;;;;;;;;;;7.00;92.90;;;;;;4988941;28;20014;-61
2021/12/13 02:24:50;;;;;;;;;;;7.10;92.90;;;;;;5021221;28;19946;-60
2021/12/13 02:27:18;;;;;;;;;;;7.00;93.00;;;;;;5024134;28;20308;-61
2021/12/13 02:29:43;;;;;;;;;;;7.00;92.90;;;;;;5006720;28;19920;-61
2021/12/13 02:32:09;;;;;;;;;;;7.00;92.90;;;;;;5008123;28;19944;-61
2021/12/13 02:34:38;;;;;;;;;;;7.00;92.90;;;;;;5008367;28;19971;-61
2021/12/13 02:37:04;;;;;;;;;;;7.00;92.90;;;;;;5020510;28;19978;-60
2021/12/13 02:39:30;;;;;;;;;;;7.00;93.00;;;;;;5008458;28;20526;-61
2021/12/13 02:41:56;;;;;;;;;;;7.00;92.90;;;;;;5021768;28;19932;-61
2021/12/13 02:44:23;;;;;;;;;;;7.00;93.00;;;;;;5008143;28;19922;-60
2021/12/13 02:46:49;;;;;;;;;;;7.00;92.90;;;;;;5005854;28;19928;-61
2021/12/13 02:49:14;;;;;;;;;;;7.00;93.00;;;;;;5023553;28;19990;-62
2021/12/13 02:51:45;;;;;;;;;;;7.00;92.90;;;;;;4985980;28;19929;-60
2021/12/13 02:54:10;;;;;;;;;;;7.00;92.90;;;;;;5021864;28;20373;-61
2021/12/13 02:56:41;;;;;;;;;;;7.00;93.00;;;;;;5023779;28;19917;-61
2021/12/13 02:59:07;;;;;;;;;;;7.00;92.90;;;;;;5008397;28;19925;-60
2021/12/13 03:01:38;;;;;;;;;;;7.00;93.00;;;;;;5005216;28;19948;-61
2021/12/13 03:04:05;;;;;;;;;;;7.00;93.00;;;;;;5006476;28;19928;-60
2021/12/13 03:06:41;;;;;;;;;;;7.00;93.00;;;;;;5008916;28;20293;-61
2021/12/13 03:09:11;;;;;;;;;;;7.00;93.00;;;;;;5024073;28;19964;-61
2021/12/13 03:11:37;;;;;;;;;;;7.00;93.00;;;;;;5023480;28;19921;-61
2021/12/13 03:14:04;;;;;;;;;;;6.90;93.00;;;;;;5005429;28;19964;-63
2021/12/13 03:16:31;;;;;;;;;;;7.00;93.00;;;;;;5006350;28;19983;-61
2021/12/13 03:18:59;;;;;;;;;;;7.00;93.00;;;;;;5007178;28;19913;-61
2021/12/13 03:21:44;;;;;;;;;;;7.00;93.00;;;;;;5023705;28;19917;-61
2021/12/13 03:24:15;;;;;;;;;;;7.00;93.00;;;;;;5016715;28;26316;-61
2021/12/13 03:26:57;;;;;;;;;;;7.00;93.00;;;;;;5020387;28;20883;-60
2021/12/13 03:29:27;;;;;;;;;;;7.00;93.00;;;;;;5022039;28;20377;-62
2021/12/13 03:31:53;;;;;;;;;;;7.00;93.00;;;;;;5023338;28;19970;-61
2021/12/13 03:34:22;;;;;;;;;;;6.90;93.00;;;;;;5023767;28;19928;-61
2021/12/13 03:36:59;;;;;;;;;;;6.90;92.90;;;;;;4990245;28;19992;-61
2021/12/13 03:39:29;;;;;;;;;;;6.90;93.00;;;;;;5020538;28;20459;-61
2021/12/13 03:41:55;;;;;;;;;;;6.90;93.00;;;;;;5020871;28;20016;-61
2021/12/13 03:44:23;;;;;;;;;;;6.90;93.00;;;;;;4991364;28;20020;-60
2021/12/13 03:46:48;;;;;;;;;;;6.90;93.00;;;;;;5018451;28;19913;-61
2021/12/13 03:49:14;;;;;;;;;;;6.90;93.00;;;;;;5024878;28;19913;-61
2021/12/13 03:51:40;;;;;;;;;;;6.90;93.00;;;;;;5022596;28;19913;-61
2021/12/13 03:54:07;;;;;;;;;;;6.90;93.10;;;;;;5007003;28;19928;-61
2021/12/13 03:56:38;;;;;;;;;;;6.90;93.10;;;;;;5006405;28;19948;-61
2021/12/13 03:59:05;;;;;;;;;;;6.80;93.00;;;;;;5021580;28;20379;-61
2021/12/13 04:01:41;;;;;;;;;;;6.90;93.10;;;;;;4996798;28;19929;-61
2021/12/13 04:04:09;;;;;;;;;;;6.80;93.10;;;;;;5022517;28;19947;-61
2021/12/13 04:06:36;;;;;;;;;;;6.80;93.10;;;;;;5003806;28;19921;-61
2021/12/13 04:09:02;;;;;;;;;;;6.80;93.00;;;;;;4988982;28;20012;-60
2021/12/13 04:11:28;;;;;;;;;;;6.80;93.10;;;;;;5006030;28;20000;-61
2021/12/13 04:13:56;;;;;;;;;;;6.80;93.10;;;;;;5004907;28;19921;-61
2021/12/13 04:16:46;;;;;;;;;;;6.80;93.10;;;;;;5004193;28;19928;-61
2021/12/13 04:19:13;;;;;;;;;;;6.80;93.10;;;;;;5007894;28;19925;-61
2021/12/13 04:21:38;;;;;;;;;;;6.80;93.10;;;;;;5005072;28;19970;-60
2021/12/13 04:24:06;;;;;;;;;;;6.70;93.10;;;;;;5024026;28;19914;-61
2021/12/13 04:26:34;;;;;;;;;;;6.80;93.20;;;;;;5021564;28;20316;-60
2021/12/13 04:28:59;;;;;;;;;;;6.70;93.10;;;;;;5005364;28;20434;-61
2021/12/13 04:31:27;;;;;;;;;;;6.70;93.20;;;;;;5021381;28;19917;-61
2021/12/13 04:33:53;;;;;;;;;;;6.70;93.20;;;;;;4989293;28;19921;-61
2021/12/13 04:36:20;;;;;;;;;;;6.70;93.20;;;;;;4989699;28;19925;-60
2021/12/13 04:38:52;;;;;;;;;;;6.70;93.10;;;;;;5001930;28;19922;-60
2021/12/13 04:41:22;;;;;;;;;;;6.70;93.10;;;;;;5000364;28;19924;-60
2021/12/13 04:43:47;;;;;;;;;;;6.70;93.10;;;;;;5021860;28;20332;-61
2021/12/13 04:46:13;;;;;;;;;;;6.70;93.20;;;;;;5019486;28;19987;-61
2021/12/13 04:48:38;;;;;;;;;;;6.70;93.20;;;;;;4988680;28;20025;-60
2021/12/13 04:51:11;;;;;;;;;;;6.60;93.20;;;;;;4988808;28;20341;-61
2021/12/13 04:53:38;;;;;;;;;;;6.60;93.20;;;;;;5023909;28;19913;-61
2021/12/13 04:56:05;;;;;;;;;;;6.60;93.20;;;;;;5006427;28;20004;-61
2021/12/13 04:58:30;;;;;;;;;;;6.60;93.20;;;;;;5004982;28;19956;-61
2021/12/13 05:00:57;;;;;;;;;;;6.60;93.20;;;;;;5005241;28;19975;-60
2021/12/13 05:03:23;;;;;;;;;;;6.60;93.20;;;;;;5021084;28;19972;-61
2021/12/13 05:05:49;;;;;;;;;;;6.50;93.20;;;;;;4990307;28;19948;-61
2021/12/13 05:08:15;;;;;;;;;;;6.50;93.30;;;;;;5022781;28;19914;-61
2021/12/13 05:10:43;;;;;;;;;;;6.60;93.30;;;;;;5005733;28;19917;-61
2021/12/13 05:13:28;;;;;;;;;;;6.50;93.20;;;;;;5003741;28;19921;-61
2021/12/13 05:15:55;;;;;;;;;;;6.60;93.20;;;;;;4990918;28;20273;-61
2021/12/13 05:18:23;;;;;;;;;;;6.50;93.20;;;;;;5017842;28;20496;-60
2021/12/13 05:20:49;;;;;;;;;;;6.50;93.20;;;;;;5013160;28;19968;-61
2021/12/13 05:23:19;;;;;;;;;;;6.50;93.20;;;;;;5006265;28;19917;-61
2021/12/13 05:25:48;;;;;;;;;;;6.50;93.30;;;;;;4989208;28;20556;-61
2021/12/13 05:28:15;;;;;;;;;;;6.50;93.20;;;;;;5002045;28;20364;-61
2021/12/13 05:30:51;;;;;;;;;;;6.50;93.20;;;;;;5006722;28;19988;-61
2021/12/13 05:33:17;;;;;;;;;;;6.50;93.30;;;;;;5006315;28;19967;-61
2021/12/13 05:35:44;;;;;;;;;;;6.50;93.50;;;;;;5004089;28;19975;-61
2021/12/13 05:38:11;;;;;;;;;;;6.50;93.30;;;;;;5022293;28;19917;-61
2021/12/13 05:40:41;;;;;;;;;;;6.50;93.30;;;;;;5005970;28;20372;-61
2021/12/13 05:43:14;;;;;;;;;;;6.50;93.30;;;;;;5005682;28;19974;-61
2021/12/13 05:45:43;;;;;;;;;;;6.50;93.30;;;;;;5005926;28;19921;-61
2021/12/13 05:48:10;;;;;;;;;;;6.40;93.30;;;;;;5005520;28;21452;-61
2021/12/13 05:50:40;;;;;;;;;;;6.40;93.30;;;;;;5023040;28;19996;-60
2021/12/13 05:53:13;;;;;;;;;;;6.40;93.30;;;;;;5000950;28;19921;-61
2021/12/13 05:55:49;;;;;;;;;;;6.40;93.30;;;;;;5002242;28;19920;-61
2021/12/13 05:58:26;;;;;;;;;;;6.40;93.30;;;;;;4989681;28;19996;-61
2021/12/13 06:00:52;;;;;;;;;;;6.40;93.40;;;;;;4991940;28;20396;-60
2021/12/13 06:03:18;;;;;;;;;;;6.40;93.40;;;;;;5010111;28;19933;-61
2021/12/13 06:05:44;;;;;;;;;;;6.40;93.40;;;;;;5009678;28;19921;-61
2021/12/13 06:08:10;;;;;;;;;;;6.40;93.40;;;;;;5010308;28;19916;-61
2021/12/13 06:10:39;;;;;;;;;;;6.40;93.80;;;;;;5009649;28;19909;-61
2021/12/13 06:13:07;;;;;;;;;;;6.40;93.50;;;;;;5009380;28;19913;-61
2021/12/13 06:15:39;;;;;;;;;;;6.40;93.50;;;;;;5009345;28;19913;-61
2021/12/13 06:18:04;;;;;;;;;;;6.40;93.50;;;;;;5007961;28;20234;-61
2021/12/13 06:20:49;;;;;;;;;;;6.40;93.60;;;;;;5010164;28;20051;-61
2021/12/13 06:23:16;;;;;;;;;;;6.40;93.60;;;;;;5027008;28;20353;-60
2021/12/13 06:25:42;;;;;;;;;;;6.40;93.60;;;;;;5014270;28;19998;-61
2021/12/13 06:28:15;;;;;;;;;;;6.40;93.60;;;;;;4992065;28;19917;-61
2021/12/13 06:30:41;;;;;;;;;;;6.40;93.60;;;;;;5008331;28;20399;-61
2021/12/13 06:33:07;;;;;;;;;;;6.40;93.70;;;;;;5009740;28;20908;-61
2021/12/13 06:35:39;;;;;;;;;;;6.40;93.70;;;;;;5007303;28;19921;-61
2021/12/13 06:38:37;;;;;;;;;;;6.40;93.70;;;;;;5002761;28;20416;-61
2021/12/13 06:41:05;;;;;;;;;;;6.40;93.70;;;;;;5013497;28;20357;-61
2021/12/13 06:43:31;;;;;;;;;;;6.40;93.70;;;;;;5020260;28;19921;-61
2021/12/13 06:45:58;;;;;;;;;;;6.40;93.70;;;;;;5007974;28;19909;-61
2021/12/13 06:48:33;;;;;;;;;;;6.30;93.60;;;;;;5005626;28;20357;-61
2021/12/13 06:50:59;;;;;;;;;;;6.30;93.60;;;;;;4987478;28;19929;-61
2021/12/13 06:53:24;;;;;;;;;;;6.30;93.70;;;;;;5004832;28;19932;-61
2021/12/13 06:55:50;;;;;;;;;;;6.30;93.70;;;;;;4989473;28;19921;-61
2021/12/13 06:58:21;;;;;;;;;;;6.30;93.70;;;;;;5003563;28;19929;-61
2021/12/13 07:00:48;;;;;;;;;;;6.30;93.70;;;;;;5008188;28;19933;-60
2021/12/13 07:03:17;;;;;;;;;;;6.30;93.70;;;;;;5020021;28;19929;-61
2021/12/13 07:05:53;;;;;;;;;;;6.30;93.70;;;;;;4999584;28;19971;-61
2021/12/13 07:08:26;;;;;;;;;;;6.30;93.70;;;;;;5017768;28;20512;-61
2021/12/13 07:10:52;;;;;;;;;;;6.20;93.60;;;;;;5003031;28;20345;-61
2021/12/13 07:13:30;;;;;;;;;;;6.30;93.70;;;;;;4999473;28;19921;-61
2021/12/13 07:15:56;;;;;;;;;;;6.30;93.70;;;;;;5003216;28;19917;-61
2021/12/13 07:18:29;;;;;;;;;;;6.20;93.70;;;;;;5017253;28;20286;-61
2021/12/13 07:20:56;;;;;;;;;;;6.20;93.70;;;;;;4988510;28;20416;-61
2021/12/13 07:23:22;;;;;;;;;;;6.20;93.80;;;;;;5001570;28;19929;-61
2021/12/13 07:25:48;;;;;;;;;;;6.20;93.80;;;;;;4998969;28;20223;-61
2021/12/13 07:28:25;;;;;;;;;;;6.20;93.80;;;;;;5000831;28;19921;-61
2021/12/13 07:30:50;;;;;;;;;;;6.20;93.80;;;;;;4987446;28;20320;-61
2021/12/13 07:33:17;;;;;;;;;;;6.20;93.80;;;;;;5003967;28;19967;-60
2021/12/13 07:35:44;;;;;;;;;;;6.20;93.80;;;;;;5015843;28;20266;-61
2021/12/13 07:38:18;;;;;;;;;;;6.20;93.70;;;;;;4987391;28;19996;-61
2021/12/13 07:40:45;;;;;;;;;;;6.20;93.70;;;;;;5018425;28;19972;-61
2021/12/13 07:43:19;;;;;;;;;;;6.20;93.70;;;;;;5002938;28;19921;-61
2021/12/13 07:45:47;;;;;;;;;;;6.20;93.80;;;;;;5018452;28;19928;-61
2021/12/13 07:48:35;;;;;;;;;;;6.20;93.80;;;;;;5000148;28;19925;-61
2021/12/13 07:51:07;;;;;;;;;;;6.20;93.70;;;;;;4996207;28;19913;-61
2021/12/13 07:53:37;;;;;;;;;;;6.20;93.70;;;;;;5034411;28;19925;-61
2021/12/13 07:56:03;;;;;;;;;;;6.20;93.70;;;;;;4985556;28;19925;-61
2021/12/13 07:58:48;;;;;;;;;;;6.20;93.70;;;;;;5000505;28;19921;-60
2021/12/13 08:01:25;;;;;;;;;;;6.20;93.70;;;;;;5021085;28;20454;-61
2021/12/13 08:03:55;;;;;;;;;;;6.20;93.60;;;;;;4990028;28;19920;-61
2021/12/13 08:06:21;;;;;;;;;;;6.20;93.60;;;;;;4988563;28;19947;-61
2021/12/13 08:08:48;;;;;;;;;;;6.30;93.60;;;;;;5022423;28;20265;-61
2021/12/13 08:11:14;;;;;;;;;;;6.20;93.60;;;;;;4989906;28;19990;-61
2021/12/13 08:13:39;;;;;;;;;;;6.30;93.60;;;;;;5021682;28;20419;-61
2021/12/13 08:16:06;;;;;;;;;;;6.20;93.60;;;;;;5002432;28;19917;-61
2021/12/13 08:18:33;;;;;;;;;;;6.20;93.60;;;;;;4989528;28;20512;-61
2021/12/13 08:21:00;;;;;;;;;;;6.20;93.60;;;;;;4987943;28;19957;-61
2021/12/13 08:23:35;;;;;;;;;;;6.30;93.60;;;;;;5006171;28;20377;-61
2021/12/13 08:26:00;;;;;;;;;;;6.30;93.60;;;;;;5002559;28;19948;-61
2021/12/13 08:28:36;;;;;;;;;;;6.30;93.60;;;;;;5004722;28;19965;-61
2021/12/13 08:31:02;;;;;;;;;;;6.30;93.60;;;;;;5005463;28;20502;-61
2021/12/13 08:33:40;;;;;;;;;;;6.30;93.60;;;;;;5005641;28;19955;-61
2021/12/13 08:36:07;;;;;;;;;;;6.30;93.60;;;;;;5005149;28;20390;-60
2021/12/13 08:38:34;;;;;;;;;;;6.30;93.60;;;;;;5022942;28;20315;-61
2021/12/13 08:41:01;;;;;;;;;;;6.30;93.60;;;;;;5020972;28;20015;-61
2021/12/13 08:43:39;;;;;;;;;;;6.30;93.60;;;;;;5001986;28;19964;-61
2021/12/13 08:46:05;;;;;;;;;;;6.40;93.70;;;;;;5005874;28;19945;-61
2021/12/13 08:48:30;;;;;;;;;;;6.40;93.70;;;;;;5004220;28;20007;-61
2021/12/13 08:50:57;;;;;;;;;;;6.40;93.60;;;;;;5004218;28;19924;-61
2021/12/13 08:53:24;;;;;;;;;;;6.40;93.60;;;;;;4987634;28;19917;-61
2021/12/13 08:56:09;;;;;;;;;;;6.40;93.60;;;;;;5020229;28;19960;-62
2021/12/13 08:58:35;;;;;;;;;;;6.40;93.50;;;;;;4999199;28;19921;-61
2021/12/13 09:01:07;;;;;;;;;;;6.40;93.60;;;;;;5019621;28;19982;-61
2021/12/13 09:03:34;;;;;;;;;;;6.40;93.60;;;;;;5002181;28;19925;-60
2021/12/13 09:06:18;;;;;;;;;;;6.40;93.50;;;;;;5005241;28;19921;-61
2021/12/13 09:08:44;;;;;;;;;;;6.50;93.60;;;;;;5019858;28;19967;-61
2021/12/13 09:11:18;;;;;;;;;;;6.40;93.50;;;;;;5003130;28;20024;-61
2021/12/13 09:13:44;;;;;;;;;;;6.40;93.50;;;;;;5022836;28;19984;-61
2021/12/13 09:16:10;;;;;;;;;;;6.40;93.60;;;;;;5023058;28;19971;-61
2021/12/13 09:18:36;;;;;;;;;;;6.40;93.60;;;;;;5005873;28;19913;-61
2021/12/13 09:21:01;;;;;;;;;;;6.40;93.70;;;;;;5005559;28;19913;-60
2021/12/13 09:23:31;;;;;;;;;;;6.40;93.70;;;;;;4990629;28;20438;-60
2021/12/13 09:26:14;;;;;;;;;;;6.40;93.60;;;;;;4987655;28;19917;-60
2021/12/13 09:28:51;;;;;;;;;;;6.50;93.60;;;;;;5014831;28;20024;-60
2021/12/13 09:31:19;;;;;;;;;;;6.50;93.50;;;;;;4987800;28;19913;-61
2021/12/13 09:33:49;;;;;;;;;;;6.50;93.50;;;;;;5007172;28;19913;-62
2021/12/13 09:36:19;;;;;;;;;;;6.50;93.50;;;;;;5021803;28;19925;-60
2021/12/13 09:38:44;;;;;;;;;;;6.50;93.40;;;;;;4991343;28;19939;-61
2021/12/13 09:41:18;;;;;;;;;;;6.50;93.40;;;;;;5024840;28;19913;-61
2021/12/13 09:44:02;;;;;;;;;;;6.50;93.50;;;;;;4992362;28;19936;-60
2021/12/13 09:46:30;;;;;;;;;;;6.50;93.50;;;;;;5022390;28;19932;-61
2021/12/13 09:48:56;;;;;;;;;;;6.50;93.50;;;;;;5027070;28;19928;-60
2021/12/13 09:51:23;;;;;;;;;;;6.50;93.50;;;;;;5007877;28;19925;-61
2021/12/13 09:53:50;;;;;;;;;;;6.50;93.40;;;;;;4990383;28;19994;-61
2021/12/13 09:56:16;;;;;;;;;;;6.60;93.40;;;;;;5022440;28;19920;-60
2021/12/13 09:58:50;;;;;;;;;;;6.50;93.50;;;;;;5022819;28;20300;-60
2021/12/13 10:01:34;;;;;;;;;;;6.60;93.40;;;;;;5023017;28;19939;-61
2021/12/13 10:04:19;;;;;;;;;;;6.60;93.70;;;;;;5022645;28;19917;-60
2021/12/13 10:06:48;;;;;;;;;;;6.60;93.40;;;;;;5026142;28;19917;-60
2021/12/13 10:09:16;;;;;;;;;;;6.60;93.30;;;;;;5010128;28;19986;-60
2021/12/13 10:11:43;;;;;;;;;;;6.60;93.30;;;;;;5025388;28;19913;-61
2021/12/13 10:14:09;;;;;;;;;;;6.60;93.30;;;;;;5004447;28;20047;-61
2021/12/13 10:16:35;;;;;;;;;;;6.60;93.40;;;;;;5005792;28;20016;-61
2021/12/13 10:19:01;;;;;;;;;;;6.60;93.40;;;;;;5007959;28;20867;-60
2021/12/13 10:21:31;;;;;;;;;;;6.60;93.40;;;;;;5008537;28;19913;-61
2021/12/13 10:23:57;;;;;;;;;;;6.60;93.40;;;;;;5006269;28;19913;-61
2021/12/13 10:26:25;;;;;;;;;;;6.60;93.60;;;;;;5019747;28;20540;-61
2021/12/13 10:28:54;;;;;;;;;;;6.60;93.60;;;;;;4989030;28;19933;-61
2021/12/13 10:31:32;;;;;;;;;;;6.70;93.60;;;;;;4991180;28;20320;-60
2021/12/13 10:33:57;;;;;;;;;;;6.60;93.50;;;;;;5005580;28;19932;-60
2021/12/13 10:36:24;;;;;;;;;;;6.70;93.60;;;;;;4990673;28;19933;-61
2021/12/13 10:38:51;;;;;;;;;;;6.70;93.70;;;;;;5004267;28;19925;-61
2021/12/13 10:41:21;;;;;;;;;;;6.70;93.70;;;;;;5003244;28;19917;-61
2021/12/13 10:43:49;;;;;;;;;;;6.70;93.70;;;;;;5004899;28;19943;-61
2021/12/13 10:46:18;;;;;;;;;;;6.70;93.70;;;;;;5003417;28;19917;-61
2021/12/13 10:48:45;;;;;;;;;;;6.70;93.80;;;;;;5005294;28;19913;-61
2021/12/13 10:51:12;;;;;;;;;;;6.80;93.70;;;;;;5021591;28;20011;-61
2021/12/13 10:53:38;;;;;;;;;;;6.80;93.70;;;;;;5020142;28;19979;-61
2021/12/13 10:56:05;;;;;;;;;;;6.80;93.70;;;;;;4990834;28;19928;-60
2021/12/13 10:58:32;;;;;;;;;;;6.80;93.80;;;;;;5007640;28;19944;-60
2021/12/13 11:00:59;;;;;;;;;;;6.80;93.80;;;;;;5017303;28;19921;-60
2021/12/13 11:03:25;;;;;;;;;;;6.80;93.90;;;;;;4991109;28;19924;-60
2021/12/13 11:05:51;;;;;;;;;;;6.90;93.90;;;;;;4989035;28;20025;-60
2021/12/13 11:08:17;;;;;;;;;;;6.80;93.90;;;;;;5004915;28;19921;-60
2021/12/13 11:10:53;;;;;;;;;;;6.80;93.90;;;;;;5008544;28;20380;-61
2021/12/13 11:13:18;;;;;;;;;;;6.90;93.90;;;;;;5021678;28;19982;-61
2021/12/13 11:15:45;;;;;;;;;;;6.90;94.00;;;;;;4991224;28;19921;-61
2021/12/13 11:18:17;;;;;;;;;;;6.90;94.00;;;;;;5021348;28;19917;-64
2021/12/13 11:20:43;;;;;;;;;;;6.90;94.00;;;;;;5006775;28;19921;-61
2021/12/13 11:23:09;;;;;;;;;;;6.90;94.00;;;;;;5023711;28;20656;-61
2021/12/13 11:25:37;;;;;;;;;;;6.90;94.00;;;;;;4988072;28;20036;-61
2021/12/13 11:28:03;;;;;;;;;;;7.00;94.00;;;;;;4989637;28;19925;-62
2021/12/13 11:30:29;;;;;;;;;;;7.00;93.90;;;;;;5022534;28;19920;-61
2021/12/13 11:32:58;;;;;;;;;;;7.00;93.80;;;;;;4991444;28;20407;-61
2021/12/13 11:35:32;;;;;;;;;;;7.00;93.80;;;;;;5023421;28;19925;-61
2021/12/13 11:38:24;;;;;;;;;;;7.00;93.70;;;;;;5006553;28;19970;-61
2021/12/13 11:41:09;;;;;;;;;;;7.00;93.70;;;;;;4991106;28;19920;-61
2021/12/13 11:43:53;;;;;;;;;;;7.10;93.80;;;;;;5020814;28;19955;-61
2021/12/13 11:46:26;;;;;;;;;;;7.00;93.80;;;;;;5017389;28;19983;-61
2021/12/13 11:49:10;;;;;;;;;;;7.00;93.80;;;;;;5022731;28;19913;-61
2021/12/13 11:51:56;;;;;;;;;;;7.00;93.70;;;;;;5021031;28;19913;-61
2021/12/13 11:54:40;;;;;;;;;;;7.00;93.70;;;;;;5020585;28;19965;-62
2021/12/13 11:57:38;;;;;;;;;;;7.00;93.70;;;;;;5019948;28;19917;-61
2021/12/13 12:00:23;;;;;;;;;;;7.00;93.80;;;;;;4973673;28;20003;-61
2021/12/13 12:03:01;;;;;;;;;;;7.20;93.80;;;;;;5012316;28;20373;-61
2021/12/13 12:05:42;;;;;;;;;;;7.10;93.60;;;;;;5008554;28;19921;-62
2021/12/13 12:08:29;;;;;;;;;;;7.10;93.60;;;;;;5006014;28;20050;-61
2021/12/13 12:11:13;;;;;;;;;;;7.00;93.50;;;;;;5006614;28;20394;-61
2021/12/13 12:13:50;;;;;;;;;;;7.10;93.50;;;;;;4991919;28;19909;-61
2021/12/13 12:16:17;;;;;;;;;;;7.10;93.50;;;;;;5005385;28;19917;-61
2021/12/13 12:18:43;;;;;;;;;;;7.10;93.60;;;;;;4991983;28;20379;-61
2021/12/13 12:21:27;;;;;;;;;;;7.10;93.50;;;;;;5006350;28;19917;-62
2021/12/13 12:23:53;;;;;;;;;;;7.20;93.50;;;;;;5021278;28;19931;-61
2021/12/13 12:26:18;;;;;;;;;;;7.10;93.40;;;;;;5004242;28;19930;-61
2021/12/13 12:28:44;;;;;;;;;;;7.10;93.40;;;;;;4987623;28;19917;-62
2021/12/13 12:31:11;;;;;;;;;;;7.10;93.40;;;;;;4996075;28;19976;-61
2021/12/13 12:33:37;;;;;;;;;;;7.10;93.40;;;;;;5021066;28;20022;-62
2021/12/13 12:36:04;;;;;;;;;;;7.10;93.30;;;;;;5017438;28;19921;-61
2021/12/13 12:38:37;;;;;;;;;;;7.20;93.30;;;;;;5000405;28;19933;-62
2021/12/13 12:41:06;;;;;;;;;;;7.20;93.30;;;;;;5010700;28;19913;-61
2021/12/13 12:43:35;;;;;;;;;;;7.20;93.30;;;;;;5022885;28;19928;-61
2021/12/13 12:46:01;;;;;;;;;;;7.20;93.30;;;;;;4987708;28;19977;-64
2021/12/13 12:48:34;;;;;;;;;;;7.20;93.30;;;;;;5003486;28;19959;-61
2021/12/13 12:51:04;;;;;;;;;;;7.20;93.20;;;;;;5004850;28;20043;-62
2021/12/13 12:53:30;;;;;;;;;;;7.20;93.20;;;;;;5001115;28;19955;-61
2021/12/13 12:55:57;;;;;;;;;;;7.20;93.20;;;;;;5022158;28;19929;-61
2021/12/13 12:58:27;;;;;;;;;;;7.20;93.20;;;;;;5015926;28;19932;-61
2021/12/13 13:00:53;;;;;;;;;;;7.20;93.10;;;;;;5005806;28;19925;-62
2021/12/13 13:03:23;;;;;;;;;;;7.20;93.20;;;;;;5004699;28;19944;-61
2021/12/13 13:05:49;;;;;;;;;;;7.20;93.20;;;;;;5004556;28;19917;-61
2021/12/13 13:08:25;;;;;;;;;;;7.20;93.10;;;;;;5005260;28;19917;-61
2021/12/13 13:10:52;;;;;;;;;;;7.20;93.00;;;;;;4990025;28;19988;-62
2021/12/13 13:13:18;;;;;;;;;;;7.20;93.10;;;;;;4999870;28;19917;-61
2021/12/13 13:15:45;;;;;;;;;;;7.20;93.00;;;;;;5002309;28;19995;-62
2021/12/13 13:18:15;;;;;;;;;;;7.30;93.00;;;;;;5024813;28;19917;-60
2021/12/13 13:20:51;;;;;;;;;;;7.30;93.00;;;;;;4990724;28;19937;-61
2021/12/13 13:23:17;;;;;;;;;;;7.30;93.00;;;;;;5005623;28;20371;-61
2021/12/13 13:25:50;;;;;;;;;;;7.30;93.00;;;;;;5021626;28;19963;-61
2021/12/13 13:28:29;;;;;;;;;;;7.40;93.00;;;;;;5005877;28;19981;-61
2021/12/13 13:30:57;;;;;;;;;;;7.40;93.00;;;;;;4989555;28;19921;-61
2021/12/13 13:33:33;;;;;;;;;;;7.40;93.00;;;;;;5021869;28;19925;-61
2021/12/13 13:35:58;;;;;;;;;;;7.40;92.90;;;;;;5005106;28;19917;-61
2021/12/13 13:38:24;;;;;;;;;;;7.30;93.00;;;;;;5005399;28;20391;-61
2021/12/13 13:40:49;;;;;;;;;;;7.30;93.10;;;;;;5022057;28;19917;-60
2021/12/13 13:43:15;;;;;;;;;;;7.40;93.00;;;;;;5005973;28;20427;-61
2021/12/13 13:45:46;;;;;;;;;;;7.40;92.90;;;;;;5004520;28;20032;-61
2021/12/13 13:48:13;;;;;;;;;;;7.40;93.00;;;;;;5005355;28;20863;-61
2021/12/13 13:50:43;;;;;;;;;;;7.40;92.90;;;;;;4986393;28;19917;-61
2021/12/13 13:53:25;;;;;;;;;;;7.40;92.90;;;;;;5000860;28;19921;-61
2021/12/13 13:56:05;;;;;;;;;;;7.40;93.00;;;;;;5000586;28;19967;-61
2021/12/13 13:58:36;;;;;;;;;;;7.40;93.00;;;;;;4983940;28;19967;-61
2021/12/13 14:01:04;;;;;;;;;;;7.40;93.00;;;;;;4985415;28;19924;-61
2021/12/13 14:03:43;;;;;;;;;;;7.50;93.10;;;;;;5003590;28;19929;-61
2021/12/13 14:06:09;;;;;;;;;;;7.50;93.10;;;;;;5015532;28;19926;-61
2021/12/13 14:08:35;;;;;;;;;;;7.50;93.10;;;;;;5000929;28;19917;-61
2021/12/13 14:11:01;;;;;;;;;;;7.40;93.10;;;;;;5016107;28;19985;-61
2021/12/13 14:13:27;;;;;;;;;;;7.50;93.10;;;;;;4986081;28;19920;-60
2021/12/13 14:15:52;;;;;;;;;;;7.50;93.00;;;;;;5021648;28;19924;-61
2021/12/13 14:18:19;;;;;;;;;;;7.50;93.00;;;;;;5022088;28;19921;-61
2021/12/13 14:20:45;;;;;;;;;;;7.50;92.80;;;;;;5005574;28;20444;-61
2021/12/13 14:23:40;;;;;;;;;;;7.60;92.80;;;;;;5025354;28;20455;-60
2021/12/13 14:26:13;;;;;;;;;;;7.50;92.70;;;;;;4998568;28;19913;-61
2021/12/13 14:28:40;;;;;;;;;;;7.60;92.70;;;;;;5004288;28;20379;-61
2021/12/13 14:31:09;;;;;;;;;;;7.50;92.70;;;;;;5004903;28;19921;-60
2021/12/13 14:33:55;;;;;;;;;;;7.60;92.70;;;;;;5005781;28;20486;-61
2021/12/13 14:36:22;;;;;;;;;;;7.60;92.70;;;;;;5022149;28;19925;-61
2021/12/13 14:38:58;;;;;;;;;;;7.60;92.70;;;;;;5003783;28;20011;-61
2021/12/13 14:41:24;;;;;;;;;;;7.60;92.70;;;;;;4990541;28;19920;-61
2021/12/13 14:43:51;;;;;;;;;;;7.60;92.80;;;;;;5005568;28;19931;-61
2021/12/13 14:46:19;;;;;;;;;;;7.60;92.80;;;;;;5006982;28;19921;-61
2021/12/13 14:48:44;;;;;;;;;;;7.60;92.80;;;;;;4990576;28;19960;-60
2021/12/13 14:51:11;;;;;;;;;;;7.60;92.80;;;;;;5005514;28;19949;-61
2021/12/13 14:53:36;;;;;;;;;;;7.60;92.80;;;;;;5022730;28;19921;-61